Time;durP1;ratioP1;P1;durP2;ratioP2;P2;SDS_P1;SDS_P2;PMS_P1;PMS_P2;Temp;Humidity;BMP_temperature;BMP_pressure;BME280_temperature;BME280_humidity;BME280_pressure;Samples;Min_cycle;Max_cycle;Signal;HPM_P1;HPM_P2
2022/08/25 00:01:37;;;;;;;;;;;21.50;99.90;;;;;;5031928;28;19917;-75
2022/08/25 00:04:04;;;;;;;;;;;21.50;99.90;;;;;;5036224;28;19928;-75
2022/08/25 00:06:30;;;;;;;;;;;21.50;99.90;;;;;;5030812;28;20224;-74
2022/08/25 00:08:58;;;;;;;;;;;21.50;99.90;;;;;;5045654;28;19920;-75
2022/08/25 00:11:26;;;;;;;;;;;21.40;99.90;;;;;;5029736;28;19913;-75
2022/08/25 00:13:55;;;;;;;;;;;21.40;99.90;;;;;;5041527;28;19921;-74
2022/08/25 00:16:21;;;;;;;;;;;21.40;99.90;;;;;;5049792;28;20043;-74
2022/08/25 00:18:50;;;;;;;;;;;21.30;99.90;;;;;;5051999;28;20004;-75
2022/08/25 00:21:16;;;;;;;;;;;21.20;99.90;;;;;;5052389;28;19917;-74
2022/08/25 00:23:42;;;;;;;;;;;21.30;99.90;;;;;;5048688;28;20255;-74
2022/08/25 00:26:08;;;;;;;;;;;21.20;99.90;;;;;;5050434;28;20016;-75
2022/08/25 00:28:35;;;;;;;;;;;21.20;99.90;;;;;;5052609;28;19945;-75
2022/08/25 00:31:00;;;;;;;;;;;21.20;99.90;;;;;;5055142;28;19920;-75
2022/08/25 00:33:27;;;;;;;;;;;21.20;99.90;;;;;;5038414;28;20337;-74
2022/08/25 00:35:53;;;;;;;;;;;21.10;99.90;;;;;;5038106;28;20228;-75
2022/08/25 00:38:19;;;;;;;;;;;21.20;99.90;;;;;;5039051;28;20489;-74
2022/08/25 00:40:45;;;;;;;;;;;21.10;99.90;;;;;;5037906;28;19913;-75
2022/08/25 00:43:10;;;;;;;;;;;21.10;99.90;;;;;;5038508;28;19913;-74
2022/08/25 00:45:36;;;;;;;;;;;21.10;99.90;;;;;;5038182;28;20226;-76
2022/08/25 00:48:02;;;;;;;;;;;21.10;99.90;;;;;;5038841;28;20363;-75
2022/08/25 00:50:29;;;;;;;;;;;21.00;99.90;;;;;;5037987;28;20015;-75
2022/08/25 00:52:57;;;;;;;;;;;20.90;99.90;;;;;;5055808;28;19942;-74
2022/08/25 00:55:25;;;;;;;;;;;20.90;99.90;;;;;;5051667;28;20316;-75
2022/08/25 00:57:54;;;;;;;;;;;20.90;99.90;;;;;;5054756;28;19955;-74
2022/08/25 01:00:23;;;;;;;;;;;20.80;99.90;;;;;;5054686;28;19928;-74
2022/08/25 01:02:49;;;;;;;;;;;20.80;99.90;;;;;;5055092;28;19920;-75
2022/08/25 01:05:17;;;;;;;;;;;20.70;99.90;;;;;;5041282;28;19929;-74
2022/08/25 01:07:43;;;;;;;;;;;20.80;99.90;;;;;;5035656;28;19917;-74
2022/08/25 01:10:09;;;;;;;;;;;20.70;99.90;;;;;;5018626;28;20300;-75
2022/08/25 01:12:36;;;;;;;;;;;20.80;99.90;;;;;;5030892;28;19974;-74
2022/08/25 01:15:03;;;;;;;;;;;20.70;99.90;;;;;;5026679;28;19917;-75
2022/08/25 01:17:33;;;;;;;;;;;20.60;99.90;;;;;;5015159;28;19932;-74
2022/08/25 01:19:59;;;;;;;;;;;20.70;99.90;;;;;;4998874;28;19983;-75
2022/08/25 01:22:26;;;;;;;;;;;20.60;99.90;;;;;;5028872;28;20285;-74
2022/08/25 01:25:02;;;;;;;;;;;20.60;99.90;;;;;;5027426;28;19924;-74
2022/08/25 01:27:28;;;;;;;;;;;20.50;99.90;;;;;;5011730;28;19917;-74
2022/08/25 01:29:54;;;;;;;;;;;20.50;99.90;;;;;;5029165;28;19917;-74
2022/08/25 01:32:19;;;;;;;;;;;20.40;99.90;;;;;;5013166;28;20316;-74
2022/08/25 01:34:45;;;;;;;;;;;20.40;99.90;;;;;;5029295;28;20034;-74
2022/08/25 01:37:12;;;;;;;;;;;20.30;99.90;;;;;;5030280;28;19924;-74
2022/08/25 01:39:38;;;;;;;;;;;20.30;99.90;;;;;;5035890;28;20205;-74
2022/08/25 01:42:08;;;;;;;;;;;20.30;99.90;;;;;;5034585;28;20116;-75
2022/08/25 01:44:35;;;;;;;;;;;20.30;99.90;;;;;;5017436;28;19936;-74
2022/08/25 01:47:01;;;;;;;;;;;20.20;99.90;;;;;;5035841;28;19913;-74
2022/08/25 01:49:27;;;;;;;;;;;20.20;99.90;;;;;;5017488;28;19909;-74
2022/08/25 01:52:00;;;;;;;;;;;20.20;99.90;;;;;;5035485;28;20400;-74
2022/08/25 01:54:26;;;;;;;;;;;20.10;99.90;;;;;;5017119;28;19940;-75
2022/08/25 01:56:51;;;;;;;;;;;20.10;99.90;;;;;;5029989;28;20296;-74
2022/08/25 01:59:18;;;;;;;;;;;20.00;99.90;;;;;;5034286;28;20335;-75
2022/08/25 02:01:43;;;;;;;;;;;20.00;99.90;;;;;;5035312;28;19919;-75
2022/08/25 02:04:09;;;;;;;;;;;20.00;99.90;;;;;;5054928;28;20013;-74
2022/08/25 02:06:34;;;;;;;;;;;20.00;99.90;;;;;;5037345;28;19920;-75
2022/08/25 02:09:05;;;;;;;;;;;20.00;99.90;;;;;;5047847;28;19921;-74
2022/08/25 02:11:32;;;;;;;;;;;20.00;99.90;;;;;;5053933;28;19962;-74
2022/08/25 02:13:58;;;;;;;;;;;20.00;99.90;;;;;;5037631;28;20370;-74
2022/08/25 02:16:27;;;;;;;;;;;20.00;99.90;;;;;;5049613;28;19913;-74
2022/08/25 02:18:53;;;;;;;;;;;20.00;99.90;;;;;;5047591;28;20330;-74
2022/08/25 02:21:18;;;;;;;;;;;20.00;99.90;;;;;;5048496;28;20007;-74
2022/08/25 02:23:44;;;;;;;;;;;19.90;99.90;;;;;;5043013;28;20055;-74
2022/08/25 02:26:10;;;;;;;;;;;19.80;99.90;;;;;;5043070;28;19918;-74
2022/08/25 02:28:36;;;;;;;;;;;19.70;99.90;;;;;;5014083;28;20300;-74
2022/08/25 02:31:03;;;;;;;;;;;19.70;99.90;;;;;;5021634;28;19923;-74
2022/08/25 02:33:28;;;;;;;;;;;19.50;99.90;;;;;;5028865;28;20493;-74
2022/08/25 02:35:56;;;;;;;;;;;19.50;99.90;;;;;;5034300;28;19917;-74
2022/08/25 02:38:21;;;;;;;;;;;19.50;99.90;;;;;;5042343;28;19913;-74
2022/08/25 02:40:48;;;;;;;;;;;19.40;99.90;;;;;;5028618;28;19917;-74
2022/08/25 02:43:13;;;;;;;;;;;19.40;99.90;;;;;;5027206;28;20205;-74
2022/08/25 02:45:40;;;;;;;;;;;19.40;99.90;;;;;;5013771;28;19921;-74
2022/08/25 02:48:05;;;;;;;;;;;19.40;99.90;;;;;;5013772;28;19921;-74
2022/08/25 02:50:31;;;;;;;;;;;19.40;99.90;;;;;;5027813;28;20000;-73
2022/08/25 02:52:57;;;;;;;;;;;19.40;99.90;;;;;;5011144;28;19941;-74
2022/08/25 02:55:22;;;;;;;;;;;19.40;99.90;;;;;;5028724;28;19924;-73
2022/08/25 02:57:48;;;;;;;;;;;19.40;99.90;;;;;;5013159;28;19913;-74
2022/08/25 03:00:14;;;;;;;;;;;19.50;99.90;;;;;;5031829;28;20039;-74
2022/08/25 03:02:40;;;;;;;;;;;19.50;99.90;;;;;;5041914;28;20052;-74
2022/08/25 03:05:08;;;;;;;;;;;19.50;99.90;;;;;;5013072;28;20012;-75
2022/08/25 03:07:34;;;;;;;;;;;19.50;99.90;;;;;;5027668;28;19940;-74
2022/08/25 03:10:03;;;;;;;;;;;19.60;99.90;;;;;;5011881;28;19917;-74
2022/08/25 03:12:29;;;;;;;;;;;19.50;99.90;;;;;;5027132;28;19963;-74
2022/08/25 03:14:55;;;;;;;;;;;19.50;99.90;;;;;;5028041;28;19913;-75
2022/08/25 03:17:20;;;;;;;;;;;19.60;99.90;;;;;;5012801;28;20456;-74
2022/08/25 03:19:46;;;;;;;;;;;19.60;99.90;;;;;;5032801;28;20257;-74
2022/08/25 03:22:11;;;;;;;;;;;19.60;99.90;;;;;;5031676;28;19999;-74
2022/08/25 03:24:37;;;;;;;;;;;19.60;99.90;;;;;;5032948;28;20000;-73
2022/08/25 03:27:03;;;;;;;;;;;19.70;99.90;;;;;;5015153;28;19991;-74
2022/08/25 03:29:32;;;;;;;;;;;19.70;99.90;;;;;;5016379;28;20259;-74
2022/08/25 03:31:59;;;;;;;;;;;19.60;99.90;;;;;;5026615;28;20320;-74
2022/08/25 03:34:26;;;;;;;;;;;19.60;99.90;;;;;;5009770;28;19921;-74
2022/08/25 03:36:53;;;;;;;;;;;19.60;99.90;;;;;;5024020;28;19921;-74
2022/08/25 03:39:19;;;;;;;;;;;19.60;99.90;;;;;;5033292;28;19913;-74
2022/08/25 03:41:46;;;;;;;;;;;19.60;99.90;;;;;;5027845;28;19921;-74
2022/08/25 03:44:12;;;;;;;;;;;19.70;99.90;;;;;;5031772;28;19917;-74
2022/08/25 03:46:45;;;;;;;;;;;19.70;99.90;;;;;;5027180;28;19917;-74
2022/08/25 03:49:12;;;;;;;;;;;19.70;99.90;;;;;;5031274;28;19913;-74
2022/08/25 03:51:42;;;;;;;;;;;19.70;99.90;;;;;;5015083;28;20356;-74
2022/08/25 03:54:09;;;;;;;;;;;19.70;99.90;;;;;;5031846;28;19967;-76
2022/08/25 03:56:34;;;;;;;;;;;19.70;99.90;;;;;;5015164;28;20284;-74
2022/08/25 03:59:00;;;;;;;;;;;19.70;99.90;;;;;;5014818;28;19913;-75
2022/08/25 04:01:26;;;;;;;;;;;19.80;99.90;;;;;;5023581;28;19920;-74
2022/08/25 04:03:51;;;;;;;;;;;19.70;99.90;;;;;;5031678;28;20297;-74
2022/08/25 04:06:17;;;;;;;;;;;19.80;99.90;;;;;;5037103;28;19943;-74
2022/08/25 04:08:43;;;;;;;;;;;19.80;99.90;;;;;;5039500;28;19956;-75
2022/08/25 04:11:11;;;;;;;;;;;19.80;99.90;;;;;;5034799;28;20357;-74
2022/08/25 04:13:38;;;;;;;;;;;19.80;99.90;;;;;;5041021;28;19981;-74
2022/08/25 04:16:09;;;;;;;;;;;19.80;99.90;;;;;;5036421;28;19932;-75
2022/08/25 04:18:35;;;;;;;;;;;19.80;99.90;;;;;;5020921;28;20303;-75
2022/08/25 04:21:02;;;;;;;;;;;19.90;99.90;;;;;;5042934;28;19924;-74
2022/08/25 04:23:27;;;;;;;;;;;19.90;99.90;;;;;;5041928;28;19926;-76
2022/08/25 04:25:53;;;;;;;;;;;19.90;99.90;;;;;;5026930;28;19917;-75
2022/08/25 04:28:19;;;;;;;;;;;19.90;99.90;;;;;;5044548;28;19964;-75
2022/08/25 04:30:44;;;;;;;;;;;19.90;99.90;;;;;;5034417;28;19924;-76
2022/08/25 04:33:10;;;;;;;;;;;19.90;99.90;;;;;;5064312;28;20245;-74
2022/08/25 04:35:35;;;;;;;;;;;19.90;99.90;;;;;;5051005;28;19972;-74
2022/08/25 04:38:01;;;;;;;;;;;20.00;99.90;;;;;;5047757;28;19916;-75
2022/08/25 04:40:27;;;;;;;;;;;19.90;99.90;;;;;;5049744;28;19923;-74
2022/08/25 04:42:52;;;;;;;;;;;19.90;99.90;;;;;;5047935;28;20263;-74
2022/08/25 04:45:18;;;;;;;;;;;19.90;99.90;;;;;;5032312;28;19914;-74
2022/08/25 04:47:43;;;;;;;;;;;19.80;99.90;;;;;;5028390;28;19913;-74
2022/08/25 04:50:09;;;;;;;;;;;19.70;99.90;;;;;;5014130;28;20261;-74
2022/08/25 04:52:36;;;;;;;;;;;19.70;99.90;;;;;;5025495;28;19917;-74
2022/08/25 04:55:02;;;;;;;;;;;19.70;99.90;;;;;;5032139;28;19921;-74
2022/08/25 04:57:27;;;;;;;;;;;19.70;99.90;;;;;;5033533;28;19917;-75
2022/08/25 04:59:54;;;;;;;;;;;19.60;99.90;;;;;;5047975;28;20351;-74
2022/08/25 05:02:20;;;;;;;;;;;19.60;99.90;;;;;;5013139;28;19913;-75
2022/08/25 05:04:45;;;;;;;;;;;19.60;99.90;;;;;;5044729;28;20005;-74
2022/08/25 05:07:11;;;;;;;;;;;19.60;99.90;;;;;;5053747;28;19917;-75
2022/08/25 05:09:37;;;;;;;;;;;19.60;99.90;;;;;;5029697;28;19916;-74
2022/08/25 05:12:03;;;;;;;;;;;19.70;99.90;;;;;;5036972;28;19967;-75
2022/08/25 05:14:29;;;;;;;;;;;19.70;99.90;;;;;;5050806;28;19912;-74
2022/08/25 05:16:55;;;;;;;;;;;19.70;99.90;;;;;;5053560;28;19970;-74
2022/08/25 05:19:22;;;;;;;;;;;19.70;99.90;;;;;;5046976;28;20408;-75
2022/08/25 05:21:48;;;;;;;;;;;19.70;99.90;;;;;;5047374;28;19924;-74
2022/08/25 05:24:13;;;;;;;;;;;19.70;99.90;;;;;;5043127;28;19913;-75
2022/08/25 05:26:39;;;;;;;;;;;19.80;99.90;;;;;;5049541;28;20300;-75
2022/08/25 05:29:05;;;;;;;;;;;19.80;99.90;;;;;;5052719;28;20008;-76
2022/08/25 05:31:31;;;;;;;;;;;19.90;99.90;;;;;;5053188;28;20051;-75
2022/08/25 05:33:57;;;;;;;;;;;20.00;99.90;;;;;;5052752;28;19917;-75
2022/08/25 05:36:23;;;;;;;;;;;20.20;99.90;;;;;;5048632;28;19917;-75
2022/08/25 05:38:49;;;;;;;;;;;20.30;99.90;;;;;;5034201;28;19924;-75
2022/08/25 05:41:16;;;;;;;;;;;20.40;99.90;;;;;;5054738;28;19917;-77
2022/08/25 05:43:43;;;;;;;;;;;20.50;99.90;;;;;;5034732;28;19944;-76
2022/08/25 05:46:09;;;;;;;;;;;20.60;99.90;;;;;;5065696;28;19913;-75
2022/08/25 05:48:35;;;;;;;;;;;20.70;99.90;;;;;;5052905;28;19917;-76
2022/08/25 05:51:01;;;;;;;;;;;20.70;99.90;;;;;;5036517;28;19921;-75
2022/08/25 05:53:27;;;;;;;;;;;20.80;99.90;;;;;;5054142;28;20008;-76
2022/08/25 05:55:54;;;;;;;;;;;20.80;99.90;;;;;;5048902;28;19913;-75
2022/08/25 05:58:20;;;;;;;;;;;20.80;99.90;;;;;;5031059;28;20520;-75
2022/08/25 06:00:46;;;;;;;;;;;20.80;99.90;;;;;;5051631;28;20012;-75
2022/08/25 06:03:12;;;;;;;;;;;20.90;99.90;;;;;;5053717;28;20027;-74
2022/08/25 06:05:37;;;;;;;;;;;20.90;99.90;;;;;;5042249;28;19963;-77
2022/08/25 06:08:03;;;;;;;;;;;20.90;99.90;;;;;;5044896;28;19936;-74
2022/08/25 06:10:29;;;;;;;;;;;20.90;99.90;;;;;;5043084;28;19913;-74
2022/08/25 06:12:54;;;;;;;;;;;21.00;99.90;;;;;;5042963;28;19920;-74
2022/08/25 06:15:22;;;;;;;;;;;21.00;99.90;;;;;;5025087;28;19913;-75
2022/08/25 06:17:48;;;;;;;;;;;21.10;99.90;;;;;;5022549;28;19917;-75
2022/08/25 06:20:15;;;;;;;;;;;21.10;99.90;;;;;;5041974;28;19913;-75
2022/08/25 06:22:40;;;;;;;;;;;21.20;99.90;;;;;;5043324;28;20193;-74
2022/08/25 06:25:07;;;;;;;;;;;21.20;99.90;;;;;;5008298;28;19928;-76
2022/08/25 06:27:33;;;;;;;;;;;21.30;99.90;;;;;;5043399;28;19939;-77
2022/08/25 06:30:03;;;;;;;;;;;21.40;99.90;;;;;;5023926;28;20197;-74
2022/08/25 06:32:32;;;;;;;;;;;21.50;99.90;;;;;;5022217;28;19920;-76
2022/08/25 06:34:58;;;;;;;;;;;21.50;99.90;;;;;;5040958;28;19928;-76
2022/08/25 06:37:24;;;;;;;;;;;21.60;99.90;;;;;;5042561;28;19921;-75
2022/08/25 06:39:50;;;;;;;;;;;21.70;99.90;;;;;;5023516;28;19917;-74
2022/08/25 06:42:15;;;;;;;;;;;21.70;99.90;;;;;;5042256;28;20201;-74
2022/08/25 06:44:41;;;;;;;;;;;21.80;99.90;;;;;;5043594;28;19924;-75
2022/08/25 06:47:07;;;;;;;;;;;21.80;99.90;;;;;;5025388;28;19917;-76
2022/08/25 06:49:32;;;;;;;;;;;21.90;99.90;;;;;;5042621;28;19917;-75
2022/08/25 06:51:58;;;;;;;;;;;22.00;99.90;;;;;;5026725;28;20304;-74
2022/08/25 06:54:24;;;;;;;;;;;22.10;99.90;;;;;;5038422;28;20346;-77
2022/08/25 06:56:50;;;;;;;;;;;22.10;99.90;;;;;;5042233;28;19913;-74
2022/08/25 06:59:16;;;;;;;;;;;22.20;99.90;;;;;;5036918;28;19927;-78
2022/08/25 07:01:42;;;;;;;;;;;22.40;99.90;;;;;;5042475;28;19999;-76
2022/08/25 07:04:08;;;;;;;;;;;22.50;99.90;;;;;;5038189;28;19927;-75
2022/08/25 07:06:34;;;;;;;;;;;22.60;99.90;;;;;;5043310;28;20332;-74
2022/08/25 07:09:00;;;;;;;;;;;22.70;99.90;;;;;;5025119;28;19928;-74
2022/08/25 07:11:26;;;;;;;;;;;22.80;99.90;;;;;;5038517;28;19974;-75
2022/08/25 07:13:52;;;;;;;;;;;23.00;99.90;;;;;;5040685;28;19917;-74
2022/08/25 07:16:19;;;;;;;;;;;23.20;99.90;;;;;;5041245;28;20228;-74
2022/08/25 07:18:45;;;;;;;;;;;23.50;99.90;;;;;;5026673;28;20008;-73
2022/08/25 07:21:11;;;;;;;;;;;23.90;99.90;;;;;;5039046;28;19917;-74
2022/08/25 07:23:37;;;;;;;;;;;24.20;99.90;;;;;;5040498;28;19932;-75
2022/08/25 07:26:14;;;;;;;;;;;24.50;99.90;;;;;;5037792;28;19918;-78
2022/08/25 07:28:40;;;;;;;;;;;25.00;99.90;;;;;;5032917;28;20226;-75
2022/08/25 07:31:05;;;;;;;;;;;25.30;99.90;;;;;;5023306;28;19916;-75
2022/08/25 07:33:31;;;;;;;;;;;25.60;99.90;;;;;;5041048;28;19928;-75
2022/08/25 07:35:56;;;;;;;;;;;25.90;99.90;;;;;;5040423;28;20312;-76
2022/08/25 07:38:22;;;;;;;;;;;26.20;99.90;;;;;;5041490;28;19917;-75
2022/08/25 07:40:53;;;;;;;;;;;26.30;99.90;;;;;;5046806;28;19935;-75
2022/08/25 07:43:20;;;;;;;;;;;26.50;99.40;;;;;;5048007;28;19917;-74
2022/08/25 07:45:45;;;;;;;;;;;26.50;99.20;;;;;;5047945;28;20765;-75
2022/08/25 07:48:11;;;;;;;;;;;26.40;99.20;;;;;;5029621;28;20470;-76
2022/08/25 07:50:38;;;;;;;;;;;26.50;99.60;;;;;;5048766;28;19921;-75
2022/08/25 07:53:04;;;;;;;;;;;26.60;99.30;;;;;;5049381;28;19921;-76
2022/08/25 07:55:30;;;;;;;;;;;26.60;99.10;;;;;;5030437;28;20057;-76
2022/08/25 07:57:58;;;;;;;;;;;26.50;99.50;;;;;;5028627;28;20320;-75
2022/08/25 08:00:27;;;;;;;;;;;26.60;99.50;;;;;;5061008;28;20322;-77
2022/08/25 08:02:52;;;;;;;;;;;26.60;99.50;;;;;;5048447;28;19917;-77
2022/08/25 08:05:18;;;;;;;;;;;26.80;99.20;;;;;;5028503;28;19940;-77
2022/08/25 08:07:43;;;;;;;;;;;27.10;99.40;;;;;;5036547;28;19917;-76
2022/08/25 08:10:10;;;;;;;;;;;27.30;98.50;;;;;;5039088;28;19924;-76
2022/08/25 08:12:36;;;;;;;;;;;27.60;99.10;;;;;;5030257;28;21878;-76
2022/08/25 08:15:02;;;;;;;;;;;27.90;98.70;;;;;;5034343;28;19928;-76
2022/08/25 08:17:27;;;;;;;;;;;28.20;98.00;;;;;;5038947;28;20365;-77
2022/08/25 08:19:53;;;;;;;;;;;28.40;97.90;;;;;;5037947;28;19936;-76
2022/08/25 08:22:19;;;;;;;;;;;28.60;97.40;;;;;;5039383;28;19932;-77
2022/08/25 08:24:45;;;;;;;;;;;28.80;97.30;;;;;;5038399;28;19917;-76
2022/08/25 08:27:12;;;;;;;;;;;28.70;96.60;;;;;;5029968;28;20456;-75
2022/08/25 08:29:39;;;;;;;;;;;28.90;96.30;;;;;;5038894;28;19920;-78
2022/08/25 08:32:05;;;;;;;;;;;28.90;95.50;;;;;;5032114;28;19983;-75
2022/08/25 08:34:31;;;;;;;;;;;28.80;95.80;;;;;;5036878;28;20008;-75
2022/08/25 08:36:57;;;;;;;;;;;28.90;96.00;;;;;;5031110;28;19960;-78
2022/08/25 08:39:22;;;;;;;;;;;28.90;96.30;;;;;;5038335;28;19963;-76
2022/08/25 08:42:16;;;;;;;;;;;29.20;96.40;;;;;;5035297;28;19917;-76
2022/08/25 08:44:45;;;;;;;;;;;29.60;97.10;;;;;;5032725;28;20224;-76
2022/08/25 08:47:13;;;;;;;;;;;29.90;96.10;;;;;;5032752;28;19931;-75
2022/08/25 08:49:57;;;;;;;;;;;30.00;96.40;;;;;;5035712;28;20321;-77
2022/08/25 08:52:27;;;;;;;;;;;30.20;94.80;;;;;;5032276;28;19917;-77
2022/08/25 08:54:55;;;;;;;;;;;30.30;95.80;;;;;;5034195;28;19924;-76
2022/08/25 08:57:24;;;;;;;;;;;30.50;96.10;;;;;;5030504;28;19971;-76
2022/08/25 09:00:00;;;;;;;;;;;30.50;94.80;;;;;;5035653;28;19913;-77
2022/08/25 09:02:35;;;;;;;;;;;30.50;95.10;;;;;;5029073;28;19917;-76
2022/08/25 09:05:03;;;;;;;;;;;30.60;94.90;;;;;;5030901;28;19952;-78
2022/08/25 09:07:32;;;;;;;;;;;30.70;94.90;;;;;;5034737;28;20216;-75
2022/08/25 09:09:57;;;;;;;;;;;30.80;94.80;;;;;;5033153;28;19921;-76
2022/08/25 09:12:36;;;;;;;;;;;30.70;93.80;;;;;;5031881;28;19913;-73
2022/08/25 09:15:06;;;;;;;;;;;30.70;93.50;;;;;;5027793;28;20020;-75
2022/08/25 09:17:51;;;;;;;;;;;30.50;93.20;;;;;;5029267;28;19944;-78
2022/08/25 09:20:28;;;;;;;;;;;30.50;92.70;;;;;;5026421;28;19913;-74
2022/08/25 09:23:14;;;;;;;;;;;30.50;93.10;;;;;;5032600;28;20343;-78
2022/08/25 09:25:53;;;;;;;;;;;30.50;93.50;;;;;;5034099;28;20348;-75
2022/08/25 09:28:22;;;;;;;;;;;30.70;92.70;;;;;;5061665;28;20422;-76
2022/08/25 09:30:59;;;;;;;;;;;30.80;93.00;;;;;;5048497;28;19921;-76
2022/08/25 09:33:26;;;;;;;;;;;31.00;92.60;;;;;;5033942;28;19970;-76
2022/08/25 09:35:52;;;;;;;;;;;31.20;91.90;;;;;;5033745;28;20047;-76
2022/08/25 09:38:18;;;;;;;;;;;31.20;92.30;;;;;;5033726;28;19929;-76
2022/08/25 09:40:49;;;;;;;;;;;31.30;92.80;;;;;;5032863;28;19920;-77
2022/08/25 09:43:35;;;;;;;;;;;31.40;92.00;;;;;;5034593;28;19954;-78
2022/08/25 09:46:04;;;;;;;;;;;31.60;91.60;;;;;;5026952;28;20240;-77
2022/08/25 09:48:37;;;;;;;;;;;31.60;91.70;;;;;;5032621;28;20527;-78
2022/08/25 09:51:18;;;;;;;;;;;31.90;91.60;;;;;;5034466;28;19968;-75
2022/08/25 09:53:48;;;;;;;;;;;32.00;91.20;;;;;;5034061;28;19936;-75
2022/08/25 09:56:17;;;;;;;;;;;32.20;90.90;;;;;;5033095;28;19952;-76
2022/08/25 09:58:43;;;;;;;;;;;32.30;90.70;;;;;;5034224;28;20063;-78
2022/08/25 10:01:19;;;;;;;;;;;32.50;90.80;;;;;;5034231;28;20324;-79
2022/08/25 10:04:02;;;;;;;;;;;32.80;92.20;;;;;;5035084;28;20200;-77
2022/08/25 10:06:30;;;;;;;;;;;32.90;90.10;;;;;;5043917;28;19931;-76
2022/08/25 10:09:05;;;;;;;;;;;33.00;89.30;;;;;;5024041;28;19919;-76
2022/08/25 10:11:33;;;;;;;;;;;33.00;90.70;;;;;;5044823;28;19917;-77
2022/08/25 10:14:06;;;;;;;;;;;33.30;90.30;;;;;;5041072;28;19921;-79
2022/08/25 10:16:32;;;;;;;;;;;33.50;91.10;;;;;;5043437;28;20000;-76
2022/08/25 10:19:01;;;;;;;;;;;33.70;87.20;;;;;;5040280;28;19929;-79
2022/08/25 10:21:26;;;;;;;;;;;34.00;88.20;;;;;;5039784;28;19917;-78
2022/08/25 10:23:54;;;;;;;;;;;34.00;85.40;;;;;;5040870;28;19924;-77
2022/08/25 10:26:40;;;;;;;;;;;33.80;84.80;;;;;;5035136;28;19913;-77
2022/08/25 10:29:05;;;;;;;;;;;33.60;83.70;;;;;;5043797;28;20223;-76
2022/08/25 10:31:47;;;;;;;;;;;33.30;85.50;;;;;;5025823;28;19923;-77
2022/08/25 10:34:16;;;;;;;;;;;33.40;85.50;;;;;;5038509;28;19970;-79
2022/08/25 10:37:00;;;;;;;;;;;33.40;83.90;;;;;;5042187;28;19920;-74
2022/08/25 10:39:31;;;;;;;;;;;33.40;84.50;;;;;;5059917;28;19924;-78
2022/08/25 10:42:06;;;;;;;;;;;33.40;83.10;;;;;;5026387;28;19916;-75
2022/08/25 10:47:33;;;;;;;;;;;33.30;81.90;;;;;;5040979;28;19924;-76
2022/08/25 10:50:12;;;;;;;;;;;33.10;82.80;;;;;;5034215;28;19998;-79
2022/08/25 10:52:43;;;;;;;;;;;33.00;83.40;;;;;;5042169;28;19924;-77
2022/08/25 10:55:17;;;;;;;;;;;32.90;81.20;;;;;;5025521;28;19917;-76
2022/08/25 10:58:01;;;;;;;;;;;32.90;82.50;;;;;;5025152;28;19968;-77
2022/08/25 11:00:33;;;;;;;;;;;32.80;84.50;;;;;;5024207;28;20055;-78
2022/08/25 11:03:13;;;;;;;;;;;32.70;84.10;;;;;;5042707;28;20304;-76
2022/08/25 11:05:39;;;;;;;;;;;32.90;84.20;;;;;;5026269;28;20236;-79
2022/08/25 11:08:23;;;;;;;;;;;32.90;84.10;;;;;;5031406;28;19917;-77
2022/08/25 11:10:58;;;;;;;;;;;32.90;85.40;;;;;;5027747;28;19920;-77
2022/08/25 11:13:39;;;;;;;;;;;32.90;89.70;;;;;;5029082;28;19923;-76
2022/08/25 11:16:15;;;;;;;;;;;33.10;90.80;;;;;;5032320;28;19920;-77
2022/08/25 11:18:45;;;;;;;;;;;33.20;87.50;;;;;;5026145;28;19958;-78
2022/08/25 11:21:13;;;;;;;;;;;33.30;87.70;;;;;;5029213;28;19914;-78
2022/08/25 11:23:42;;;;;;;;;;;33.30;88.90;;;;;;5032485;28;19917;-76
2022/08/25 11:26:12;;;;;;;;;;;33.30;88.10;;;;;;5025338;28;19928;-75
2022/08/25 11:28:41;;;;;;;;;;;33.40;86.20;;;;;;5032251;28;20277;-77
2022/08/25 11:31:07;;;;;;;;;;;33.40;84.80;;;;;;5025838;28;19914;-75
2022/08/25 11:33:33;;;;;;;;;;;33.60;89.20;;;;;;5031228;28;19921;-76
2022/08/25 11:36:00;;;;;;;;;;;33.80;88.00;;;;;;5030401;28;19936;-75
2022/08/25 11:38:32;;;;;;;;;;;33.90;87.50;;;;;;5031959;28;19917;-76
2022/08/25 11:40:58;;;;;;;;;;;34.10;85.50;;;;;;5031413;28;20205;-76
2022/08/25 11:43:33;;;;;;;;;;;34.10;86.50;;;;;;5029344;28;19921;-75
2022/08/25 11:46:04;;;;;;;;;;;34.20;86.80;;;;;;5031161;28;19960;-76
2022/08/25 11:48:39;;;;;;;;;;;34.20;84.10;;;;;;5024386;28;19913;-76
2022/08/25 11:51:09;;;;;;;;;;;34.20;87.70;;;;;;5026932;28;20398;-75
2022/08/25 11:53:36;;;;;;;;;;;34.10;87.00;;;;;;5031069;28;19949;-75
2022/08/25 11:56:30;;;;;;;;;;;33.90;88.70;;;;;;5031537;28;19917;-75
2022/08/25 11:58:56;;;;;;;;;;;33.70;84.00;;;;;;5029479;28;19921;-75
2022/08/25 12:01:31;;;;;;;;;;;33.70;84.10;;;;;;5025062;28;20004;-76
2022/08/25 12:04:23;;;;;;;;;;;33.70;84.40;;;;;;5030339;28;19921;-75
2022/08/25 12:07:04;;;;;;;;;;;33.80;85.90;;;;;;5015902;28;19920;-75
2022/08/25 12:09:29;;;;;;;;;;;33.60;84.20;;;;;;5037758;28;21083;-80
2022/08/25 12:11:56;;;;;;;;;;;33.50;83.90;;;;;;5038060;28;20015;-75
2022/08/25 12:14:25;;;;;;;;;;;33.20;83.60;;;;;;5037445;28;19952;-75
2022/08/25 12:16:52;;;;;;;;;;;32.90;83.90;;;;;;5039089;28;19921;-75
2022/08/25 12:19:23;;;;;;;;;;;32.70;84.20;;;;;;5038662;28;19917;-74
2022/08/25 12:21:49;;;;;;;;;;;32.70;86.20;;;;;;5018364;28;19917;-75
2022/08/25 12:24:35;;;;;;;;;;;32.90;88.40;;;;;;5038078;28;19964;-75
2022/08/25 12:27:02;;;;;;;;;;;33.20;85.60;;;;;;5025441;28;19921;-75
2022/08/25 12:29:30;;;;;;;;;;;33.50;88.90;;;;;;5038944;28;19917;-76
2022/08/25 12:31:56;;;;;;;;;;;33.60;84.90;;;;;;5039796;28;19948;-75
2022/08/25 12:34:31;;;;;;;;;;;33.70;85.30;;;;;;5042662;28;19954;-75
2022/08/25 12:36:58;;;;;;;;;;;33.90;88.10;;;;;;5043773;28;20003;-75
2022/08/25 12:39:28;;;;;;;;;;;34.10;85.60;;;;;;5045053;28;19913;-76
2022/08/25 12:41:54;;;;;;;;;;;34.40;85.10;;;;;;5042128;28;19956;-75
2022/08/25 12:44:41;;;;;;;;;;;34.60;83.70;;;;;;5042732;28;20289;-75
2022/08/25 12:47:12;;;;;;;;;;;34.60;81.10;;;;;;5042127;28;20301;-80
2022/08/25 12:49:38;;;;;;;;;;;34.60;81.40;;;;;;5039878;28;20104;-75
2022/08/25 12:52:33;;;;;;;;;;;34.80;82.50;;;;;;5041436;28;19912;-75
2022/08/25 12:55:02;;;;;;;;;;;34.70;78.90;;;;;;5026739;28;20180;-75
2022/08/25 12:57:37;;;;;;;;;;;34.70;81.10;;;;;;5035557;28;20011;-75
2022/08/25 13:00:14;;;;;;;;;;;34.70;81.00;;;;;;5037629;28;19921;-75
2022/08/25 13:02:46;;;;;;;;;;;34.70;82.10;;;;;;5042301;28;19968;-75
2022/08/25 13:05:30;;;;;;;;;;;34.70;81.20;;;;;;5050693;28;19966;-76
2022/08/25 13:08:14;;;;;;;;;;;34.80;80.00;;;;;;5052888;28;19975;-77
2022/08/25 13:10:45;;;;;;;;;;;34.60;77.30;;;;;;5038173;28;19917;-75
2022/08/25 13:13:18;;;;;;;;;;;34.30;78.90;;;;;;5051542;28;19955;-76
2022/08/25 13:15:56;;;;;;;;;;;34.30;78.60;;;;;;5035645;28;19986;-75
2022/08/25 13:18:25;;;;;;;;;;;34.30;81.50;;;;;;5051925;28;19932;-75
2022/08/25 13:21:14;;;;;;;;;;;34.40;81.20;;;;;;5053872;28;19916;-75
2022/08/25 13:23:40;;;;;;;;;;;34.50;82.30;;;;;;5026457;28;20223;-75
2022/08/25 13:26:06;;;;;;;;;;;34.60;83.30;;;;;;5053999;28;19921;-75
2022/08/25 13:28:36;;;;;;;;;;;34.70;82.70;;;;;;5052632;28;19919;-72
2022/08/25 13:31:04;;;;;;;;;;;34.60;81.50;;;;;;5052043;28;20219;-73
2022/08/25 13:33:29;;;;;;;;;;;34.60;82.10;;;;;;5036384;28;19996;-73
2022/08/25 13:38:41;;;;;;;;;;;34.60;82.50;;;;;;5053747;28;20028;-73
2022/08/25 13:41:07;;;;;;;;;;;34.50;80.40;;;;;;5037217;28;19916;-72
2022/08/25 13:43:34;;;;;;;;;;;34.50;78.70;;;;;;5047814;28;19927;-73
2022/08/25 13:45:59;;;;;;;;;;;34.60;80.00;;;;;;5034405;28;20227;-74
2022/08/25 13:48:33;;;;;;;;;;;34.60;77.80;;;;;;5052866;28;19916;-73
2022/08/25 13:51:07;;;;;;;;;;;34.50;77.00;;;;;;5052904;28;19920;-74
2022/08/25 13:53:33;;;;;;;;;;;34.30;76.20;;;;;;5050694;28;19983;-73
2022/08/25 13:55:59;;;;;;;;;;;34.20;78.20;;;;;;5036072;28;19917;-73
2022/08/25 13:58:30;;;;;;;;;;;34.30;80.70;;;;;;5052376;28;19921;-73
2022/08/25 14:01:16;;;;;;;;;;;34.30;84.10;;;;;;5019769;28;20421;-72
2022/08/25 14:03:42;;;;;;;;;;;34.40;81.60;;;;;;5051884;28;20347;-72
2022/08/25 14:06:17;;;;;;;;;;;34.40;84.10;;;;;;5032562;28;19921;-72
2022/08/25 14:08:47;;;;;;;;;;;34.60;80.90;;;;;;5053065;28;19923;-72
2022/08/25 14:11:29;;;;;;;;;;;34.50;82.00;;;;;;5049449;28;19917;-73
2022/08/25 14:13:59;;;;;;;;;;;34.60;84.10;;;;;;5035823;28;20363;-72
2022/08/25 14:16:25;;;;;;;;;;;34.60;83.10;;;;;;5036459;28;19944;-73
2022/08/25 14:18:53;;;;;;;;;;;34.60;82.70;;;;;;5035788;28;19948;-73
2022/08/25 14:21:21;;;;;;;;;;;34.60;81.00;;;;;;5051554;28;20228;-73
2022/08/25 14:23:46;;;;;;;;;;;34.60;82.60;;;;;;5053094;28;19920;-73
2022/08/25 14:26:12;;;;;;;;;;;34.60;83.70;;;;;;5037479;28;19924;-73
2022/08/25 14:28:38;;;;;;;;;;;34.60;82.70;;;;;;5051618;28;20300;-73
2022/08/25 14:31:07;;;;;;;;;;;34.60;83.00;;;;;;5052153;28;19952;-73